createdAt,value
2023-04-07T00:01:42.859Z,86.80
2023-04-07T00:04:11.149Z,86.60
2023-04-07T00:06:40.480Z,86.60
2023-04-07T00:09:09.933Z,87.00
2023-04-07T00:11:37.929Z,87.00
2023-04-07T00:14:06.007Z,87.00
2023-04-07T00:16:34.317Z,86.80
2023-04-07T00:19:02.162Z,86.70
2023-04-07T00:21:30.000Z,86.80
2023-04-07T00:23:59.344Z,86.80
2023-04-07T00:26:31.481Z,86.80
2023-04-07T00:28:59.340Z,87.00
2023-04-07T00:31:27.272Z,86.80
2023-04-07T00:33:55.822Z,86.60
2023-04-07T00:36:24.124Z,86.70
2023-04-07T00:38:51.999Z,86.40
2023-04-07T00:41:19.896Z,86.60
2023-04-07T00:43:52.849Z,86.30
2023-04-07T00:46:23.920Z,86.20
2023-04-07T00:48:51.851Z,86.40
2023-04-07T00:51:21.269Z,86.60
2023-04-07T00:53:50.122Z,87.10
2023-04-07T00:56:20.759Z,87.20
2023-04-07T00:58:48.617Z,87.50
2023-04-07T01:01:25.985Z,87.30
2023-04-07T01:03:57.501Z,88.00
2023-04-07T01:06:27.731Z,87.00
2023-04-07T01:09:03.474Z,87.50
2023-04-07T01:11:38.182Z,87.20
2023-04-07T01:14:08.240Z,87.30
2023-04-07T01:16:43.406Z,87.30
2023-04-07T01:19:16.951Z,87.50
2023-04-07T01:21:47.931Z,87.50
2023-04-07T01:24:35.608Z,87.40
2023-04-07T01:27:15.432Z,87.30
2023-04-07T01:29:47.842Z,87.60
2023-04-07T01:32:17.192Z,87.60
2023-04-07T01:34:46.435Z,87.60
2023-04-07T01:37:15.391Z,87.20
2023-04-07T01:39:43.897Z,87.30
2023-04-07T01:42:12.991Z,87.60
2023-04-07T01:44:41.788Z,87.30
2023-04-07T01:47:11.557Z,87.30
2023-04-07T01:49:41.018Z,87.70
2023-04-07T01:52:09.516Z,87.50
2023-04-07T01:54:38.567Z,87.50
2023-04-07T01:57:06.434Z,87.60
2023-04-07T01:59:40.316Z,87.50
2023-04-07T02:02:09.797Z,87.30
2023-04-07T02:04:45.495Z,87.30
2023-04-07T02:07:21.733Z,87.30
2023-04-07T02:09:52.454Z,87.30
2023-04-07T02:12:21.514Z,87.20
2023-04-07T02:14:49.475Z,87.10
2023-04-07T02:17:19.976Z,86.90
2023-04-07T02:19:50.062Z,87.00
2023-04-07T02:22:19.023Z,86.80
2023-04-07T02:24:47.003Z,86.80
2023-04-07T02:27:14.767Z,86.80
2023-04-07T02:29:42.558Z,87.00
2023-04-07T02:32:11.212Z,87.00
2023-04-07T02:34:40.417Z,86.80
2023-04-07T02:37:08.461Z,86.80
2023-04-07T02:39:36.262Z,86.60
2023-04-07T02:42:04.074Z,86.60
2023-04-07T02:44:32.183Z,86.40
2023-04-07T02:47:00.367Z,86.40
2023-04-07T02:49:28.144Z,86.50
2023-04-07T02:51:57.253Z,86.20
2023-04-07T02:54:25.080Z,86.30
2023-04-07T02:56:52.857Z,86.30
2023-04-07T02:59:20.856Z,86.00
2023-04-07T03:01:48.760Z,85.90
2023-04-07T03:04:16.707Z,86.10
2023-04-07T03:06:44.522Z,86.30
2023-04-07T03:09:14.039Z,86.10
2023-04-07T03:11:42.591Z,86.30
2023-04-07T03:14:10.534Z,86.20
2023-04-07T03:16:38.344Z,86.40
2023-04-07T03:19:06.177Z,86.30
2023-04-07T03:21:33.976Z,86.30
2023-04-07T03:24:01.780Z,86.60
2023-04-07T03:26:31.518Z,86.50
2023-04-07T03:28:59.288Z,86.60
2023-04-07T03:31:27.173Z,86.80
2023-04-07T03:33:55.105Z,86.60
2023-04-07T03:36:23.083Z,86.80
2023-04-07T03:38:50.930Z,86.90
2023-04-07T03:41:19.059Z,86.80
2023-04-07T03:43:48.238Z,87.00
2023-04-07T03:46:16.271Z,87.00
2023-04-07T03:48:44.367Z,87.00
2023-04-07T03:51:12.500Z,87.00
2023-04-07T03:53:40.344Z,87.00
2023-04-07T03:56:08.500Z,87.00
2023-04-07T03:58:36.393Z,87.20
2023-04-07T04:01:05.738Z,87.00
2023-04-07T04:03:33.610Z,87.00
2023-04-07T04:06:01.815Z,87.10
2023-04-07T04:08:30.288Z,87.10
2023-04-07T04:10:58.189Z,87.10
2023-04-07T04:13:26.344Z,87.10
2023-04-07T04:15:54.214Z,87.30
2023-04-07T04:18:23.340Z,87.30
2023-04-07T04:20:51.294Z,87.10
2023-04-07T04:23:19.058Z,87.10
2023-04-07T04:25:46.845Z,88.00
2023-04-07T04:28:14.610Z,87.10
2023-04-07T04:30:42.378Z,87.20
2023-04-07T04:33:10.502Z,87.20
2023-04-07T04:35:39.617Z,87.30
2023-04-07T04:38:07.405Z,87.30
2023-04-07T04:40:35.247Z,87.20
2023-04-07T04:43:06.757Z,87.30
2023-04-07T04:45:34.653Z,87.50
2023-04-07T04:48:02.766Z,87.30
2023-04-07T04:50:30.594Z,87.50
2023-04-07T04:52:59.733Z,87.50
2023-04-07T04:55:27.500Z,87.50
2023-04-07T04:57:55.447Z,87.60
2023-04-07T05:00:23.380Z,87.50
2023-04-07T05:02:51.254Z,87.70
2023-04-07T05:05:19.305Z,87.70
2023-04-07T05:07:47.138Z,87.70
2023-04-07T05:10:16.483Z,87.70
2023-04-07T05:12:44.252Z,87.80
2023-04-07T05:15:12.515Z,87.80
2023-04-07T05:17:40.348Z,87.70
2023-04-07T05:20:11.357Z,87.80
2023-04-07T05:22:39.117Z,87.90
2023-04-07T05:25:07.930Z,87.80
2023-04-07T05:27:37.026Z,87.90
2023-04-07T05:30:05.359Z,87.70
2023-04-07T05:32:33.154Z,87.80
2023-04-07T05:35:00.944Z,87.70
2023-04-07T05:37:28.736Z,87.70
2023-04-07T05:39:56.483Z,87.80
2023-04-07T05:42:24.324Z,87.70
2023-04-07T05:44:53.456Z,87.70
2023-04-07T05:47:21.441Z,87.70
2023-04-07T05:49:49.228Z,87.80
2023-04-07T05:52:17.008Z,88.00
2023-04-07T05:54:44.968Z,88.00
2023-04-07T05:57:12.736Z,88.00
2023-04-07T05:59:40.535Z,87.80
2023-04-07T06:02:09.701Z,87.80
2023-04-07T06:04:39.337Z,87.70
2023-04-07T06:07:07.648Z,88.00
2023-04-07T06:09:35.391Z,87.70
2023-04-07T06:12:04.984Z,87.40
2023-04-07T06:14:32.766Z,87.70
2023-04-07T06:17:00.847Z,87.70
2023-04-07T06:19:30.039Z,88.10
2023-04-07T06:21:57.807Z,88.20
2023-04-07T06:24:25.566Z,88.10
2023-04-07T06:26:53.762Z,89.20
2023-04-07T06:29:21.852Z,87.70
2023-04-07T06:31:49.638Z,87.40
2023-04-07T06:34:17.688Z,87.30
2023-04-07T06:36:46.937Z,87.10
2023-04-07T06:39:14.717Z,86.90
2023-04-07T06:41:43.075Z,86.80
2023-04-07T06:44:11.699Z,86.90
2023-04-07T06:46:39.589Z,87.00
2023-04-07T06:49:07.779Z,87.00
2023-04-07T06:51:35.534Z,86.90
2023-04-07T06:54:05.899Z,86.90
2023-04-07T06:56:34.633Z,86.80
2023-04-07T06:59:02.401Z,86.80
2023-04-07T07:01:30.310Z,86.90
2023-04-07T07:03:58.217Z,86.90
2023-04-07T07:06:26.136Z,87.00
2023-04-07T07:08:54.295Z,86.90
2023-04-07T07:11:23.388Z,86.80
2023-04-07T07:13:51.159Z,87.00
2023-04-07T07:16:19.192Z,87.10
2023-04-07T07:18:47.051Z,85.90
2023-04-07T07:21:14.860Z,85.00
2023-04-07T07:23:42.830Z,85.40
2023-04-07T07:26:10.644Z,85.40
2023-04-07T07:28:39.759Z,85.60
2023-04-07T07:31:12.866Z,85.70
2023-04-07T07:33:41.540Z,85.70
2023-04-07T07:36:09.630Z,85.90
2023-04-07T07:38:37.830Z,86.00
2023-04-07T07:41:06.979Z,86.10
2023-04-07T07:43:35.245Z,86.10
2023-04-07T07:46:04.471Z,86.30
2023-04-07T07:48:32.308Z,86.40
2023-04-07T07:51:00.097Z,86.40
2023-04-07T07:53:27.979Z,86.40
2023-04-07T07:55:56.053Z,86.60
2023-04-07T07:58:23.879Z,86.60
2023-04-07T08:00:51.734Z,86.60
2023-04-07T08:03:22.638Z,86.60
2023-04-07T08:05:50.938Z,86.40
2023-04-07T08:08:18.727Z,86.40
2023-04-07T08:10:46.977Z,86.50
2023-04-07T08:13:14.722Z,86.60
2023-04-07T08:15:42.583Z,86.50
2023-04-07T08:18:10.450Z,86.70
2023-04-07T08:20:39.783Z,86.60
2023-04-07T08:23:07.727Z,86.50
2023-04-07T08:25:36.605Z,86.50
2023-04-07T08:28:04.403Z,86.50
2023-04-07T08:30:32.321Z,86.40
2023-04-07T08:33:00.336Z,86.40
2023-04-07T08:35:28.362Z,86.60
2023-04-07T08:37:57.582Z,86.60
2023-04-07T08:40:25.782Z,86.60
2023-04-07T08:42:53.681Z,86.60
2023-04-07T08:45:22.991Z,86.60
2023-04-07T08:47:54.463Z,86.50
2023-04-07T08:50:23.676Z,86.70
2023-04-07T08:52:55.743Z,86.60
2023-04-07T08:55:25.999Z,86.50
2023-04-07T08:57:54.674Z,86.50
2023-04-07T09:00:22.595Z,85.80
2023-04-07T09:02:51.784Z,84.80
2023-04-07T09:05:21.306Z,85.10
2023-04-07T09:07:49.162Z,85.20
2023-04-07T09:10:17.669Z,85.50
2023-04-07T09:12:46.935Z,85.50
2023-04-07T09:15:14.792Z,85.60
2023-04-07T09:17:42.689Z,85.40
2023-04-07T09:20:11.341Z,85.40
2023-04-07T09:22:40.463Z,85.40
2023-04-07T09:25:16.430Z,85.30
2023-04-07T09:27:57.724Z,85.40
2023-04-07T09:30:26.200Z,85.50
2023-04-07T09:32:54.135Z,85.30
2023-04-07T09:35:23.726Z,85.10
2023-04-07T09:38:05.509Z,85.30
2023-04-07T09:40:33.580Z,85.30
2023-04-07T09:43:05.112Z,85.10
2023-04-07T09:45:36.853Z,85.30
2023-04-07T09:48:08.961Z,85.30
2023-04-07T09:50:40.974Z,85.30
2023-04-07T09:53:09.140Z,85.30
2023-04-07T09:55:38.345Z,85.30
2023-04-07T09:58:08.885Z,85.30
2023-04-07T10:00:36.941Z,85.00
2023-04-07T10:03:05.839Z,85.10
2023-04-07T10:05:35.304Z,84.60
2023-04-07T10:08:03.646Z,84.20
2023-04-07T10:10:32.378Z,84.10
2023-04-07T10:13:00.692Z,84.00
2023-04-07T10:15:30.038Z,84.10
2023-04-07T10:17:58.306Z,84.10
2023-04-07T10:20:26.387Z,84.40
2023-04-07T10:22:56.903Z,84.40
2023-04-07T10:25:26.656Z,84.30
2023-04-07T10:27:59.567Z,84.30
2023-04-07T10:30:31.054Z,84.30
2023-04-07T10:32:59.565Z,84.20
2023-04-07T10:35:28.317Z,84.30
2023-04-07T10:38:13.919Z,84.50
2023-04-07T10:40:42.717Z,84.50
2023-04-07T10:43:11.444Z,84.60
2023-04-07T10:45:59.425Z,84.50
2023-04-07T10:48:32.853Z,84.60
2023-04-07T10:51:18.938Z,84.80
2023-04-07T10:54:27.886Z,84.80
2023-04-07T10:57:11.681Z,83.50
2023-04-07T10:59:40.859Z,79.10
2023-04-07T11:02:39.347Z,77.80
2023-04-07T11:05:07.889Z,69.40
2023-04-07T11:07:50.914Z,70.00
2023-04-07T11:10:19.429Z,74.60
2023-04-07T11:13:00.814Z,72.00
2023-04-07T11:15:28.572Z,71.80
2023-04-07T11:18:16.595Z,68.90
2023-04-07T11:20:50.168Z,66.90
2023-04-07T11:23:19.644Z,72.50
2023-04-07T11:25:50.720Z,74.90
2023-04-07T11:28:18.839Z,74.80
2023-04-07T11:30:49.719Z,70.30
2023-04-07T11:33:21.004Z,65.20
2023-04-07T11:35:55.381Z,65.90
2023-04-07T11:38:24.549Z,65.10
2023-04-07T11:40:52.610Z,63.70
2023-04-07T11:43:22.786Z,62.80
2023-04-07T11:46:07.698Z,62.90
2023-04-07T11:48:38.746Z,62.30
2023-04-07T11:51:07.540Z,62.30
2023-04-07T11:53:37.897Z,61.40
2023-04-07T11:56:09.574Z,61.90
2023-04-07T11:58:37.680Z,61.80
2023-04-07T12:01:08.432Z,62.60
2023-04-07T12:03:38.507Z,61.40
2023-04-07T12:06:08.612Z,61.80
2023-04-07T12:08:41.262Z,61.00
2023-04-07T12:11:10.123Z,59.50
2023-04-07T12:13:38.462Z,59.90
2023-04-07T12:16:06.662Z,60.50
2023-04-07T12:18:34.459Z,60.20
2023-04-07T12:21:03.519Z,59.70
2023-04-07T12:23:31.340Z,59.10
2023-04-07T12:25:59.102Z,60.60
2023-04-07T12:28:27.565Z,61.10
2023-04-07T12:30:55.450Z,60.40
2023-04-07T12:33:23.279Z,59.50
2023-04-07T12:35:51.793Z,59.90
2023-04-07T12:38:20.935Z,58.80
2023-04-07T12:40:48.693Z,58.90
2023-04-07T12:43:16.794Z,59.20
2023-04-07T12:45:44.926Z,59.20
2023-04-07T12:48:12.698Z,57.80
2023-04-07T12:50:40.469Z,58.60
2023-04-07T12:53:09.120Z,58.60
2023-04-07T12:55:38.198Z,57.90
2023-04-07T12:58:05.946Z,57.90
2023-04-07T13:00:33.691Z,58.60
2023-04-07T13:03:01.586Z,57.80
2023-04-07T13:05:30.131Z,57.60
2023-04-07T13:07:57.891Z,58.10
2023-04-07T13:10:26.028Z,58.20
2023-04-07T13:12:55.222Z,59.00
2023-04-07T13:15:23.412Z,57.80
2023-04-07T13:17:51.278Z,57.50
2023-04-07T13:20:20.776Z,58.20
2023-04-07T13:22:50.697Z,58.60
2023-04-07T13:25:28.885Z,57.90
2023-04-07T13:27:58.012Z,58.50
2023-04-07T13:30:26.148Z,58.70
2023-04-07T13:32:54.093Z,58.60
2023-04-07T13:35:22.017Z,58.30
2023-04-07T13:37:49.902Z,58.20
2023-04-07T13:40:17.836Z,58.60
2023-04-07T13:42:45.593Z,59.40
2023-04-07T13:45:14.808Z,59.50
2023-04-07T13:47:42.763Z,59.40
2023-04-07T13:50:11.242Z,59.00
2023-04-07T13:52:39.067Z,59.10
2023-04-07T13:55:07.685Z,58.30
2023-04-07T13:57:35.482Z,58.40
2023-04-07T14:00:03.641Z,58.40
2023-04-07T14:02:32.773Z,58.10
2023-04-07T14:05:00.732Z,58.60
2023-04-07T14:07:28.473Z,58.20
2023-04-07T14:09:56.419Z,58.60
2023-04-07T14:12:24.202Z,58.20
2023-04-07T14:14:52.688Z,58.10
2023-04-07T14:17:20.489Z,57.30
2023-04-07T14:19:49.655Z,56.50
2023-04-07T14:22:17.449Z,56.70
2023-04-07T14:24:45.430Z,56.90
2023-04-07T14:27:14.065Z,56.70
2023-04-07T14:29:41.806Z,57.00
2023-04-07T14:32:09.572Z,57.00
2023-04-07T14:34:37.653Z,56.70
2023-04-07T14:37:07.277Z,57.00
2023-04-07T14:39:35.484Z,57.70
2023-04-07T14:42:04.322Z,57.30
2023-04-07T14:44:33.054Z,56.90
2023-04-07T14:47:01.488Z,56.70
2023-04-07T14:49:29.278Z,57.10
2023-04-07T14:51:57.091Z,56.70
2023-04-07T14:54:26.152Z,56.60
2023-04-07T14:56:53.912Z,57.20
2023-04-07T14:59:21.653Z,57.60
2023-04-07T15:01:49.480Z,57.70
2023-04-07T15:04:17.355Z,58.10
2023-04-07T15:06:47.227Z,57.70
2023-04-07T15:09:15.309Z,57.50
2023-04-07T15:11:45.887Z,57.20
2023-04-07T15:14:13.813Z,57.40
2023-04-07T15:16:41.629Z,57.10
2023-04-07T15:19:09.452Z,57.30
2023-04-07T15:21:37.214Z,58.00
2023-04-07T15:24:05.038Z,58.40
2023-04-07T15:26:32.780Z,58.20
2023-04-07T15:29:02.278Z,57.70
2023-04-07T15:31:30.167Z,58.10
2023-04-07T15:33:57.956Z,58.00
2023-04-07T15:36:25.858Z,57.70
2023-04-07T15:38:53.577Z,58.20
2023-04-07T15:41:23.244Z,57.90
2023-04-07T15:43:51.398Z,57.90
2023-04-07T15:46:20.510Z,57.10
2023-04-07T15:48:48.301Z,57.80
2023-04-07T15:51:16.057Z,58.00
2023-04-07T15:53:43.919Z,57.20
2023-04-07T15:56:13.738Z,57.70
2023-04-07T15:58:41.723Z,57.00
2023-04-07T16:01:09.848Z,57.20
2023-04-07T16:03:39.081Z,57.60
2023-04-07T16:06:06.975Z,58.30
2023-04-07T16:08:34.808Z,58.90
2023-04-07T16:11:02.536Z,59.20
2023-04-07T16:13:30.258Z,59.10
2023-04-07T16:15:58.420Z,58.90
2023-04-07T16:18:26.223Z,59.40
2023-04-07T16:20:55.271Z,58.80
2023-04-07T16:23:23.192Z,58.60
2023-04-07T16:25:50.970Z,58.50
2023-04-07T16:28:18.781Z,58.40
2023-04-07T16:30:46.874Z,58.30
2023-04-07T16:33:14.653Z,58.50
2023-04-07T16:35:42.446Z,59.10
2023-04-07T16:38:11.541Z,59.30
2023-04-07T16:41:03.442Z,58.60
2023-04-07T16:43:32.434Z,59.00
2023-04-07T16:46:01.023Z,59.10
2023-04-07T16:48:29.140Z,58.00
2023-04-07T16:50:56.946Z,58.50
2023-04-07T16:53:26.308Z,59.40
2023-04-07T16:55:54.059Z,60.20
2023-04-07T16:58:21.833Z,60.70
2023-04-07T17:00:49.966Z,61.40
2023-04-07T17:03:18.131Z,61.10
2023-04-07T17:05:47.040Z,61.50
2023-04-07T17:08:14.803Z,61.90
2023-04-07T17:10:43.979Z,61.90
2023-04-07T17:13:11.775Z,62.20
2023-04-07T17:15:39.585Z,62.70
2023-04-07T17:18:07.419Z,62.70
2023-04-07T17:20:35.204Z,62.80
2023-04-07T17:23:02.977Z,62.80
2023-04-07T17:25:30.855Z,63.20
2023-04-07T17:27:59.952Z,63.00
2023-04-07T17:30:27.777Z,63.10
2023-04-07T17:32:55.985Z,63.30
2023-04-07T17:35:24.979Z,63.30
2023-04-07T17:37:52.983Z,63.20
2023-04-07T17:40:21.053Z,63.30
2023-04-07T17:42:49.616Z,63.50
2023-04-07T17:45:18.885Z,63.60
2023-04-07T17:47:48.449Z,63.80
2023-04-07T17:50:17.147Z,64.00
2023-04-07T17:52:45.082Z,64.30
2023-04-07T17:55:13.128Z,64.60
2023-04-07T17:57:42.293Z,65.60
2023-04-07T18:00:10.746Z,65.20
2023-04-07T18:02:40.965Z,65.30
2023-04-07T18:05:09.798Z,65.40
2023-04-07T18:07:37.699Z,65.50
2023-04-07T18:10:06.820Z,65.70
2023-04-07T18:12:34.711Z,66.10
2023-04-07T18:15:02.610Z,66.30
2023-04-07T18:17:30.522Z,66.40
2023-04-07T18:19:59.830Z,66.90
2023-04-07T18:22:27.867Z,66.60
2023-04-07T18:24:55.737Z,67.00
2023-04-07T18:27:25.238Z,67.10
2023-04-07T18:29:53.122Z,67.50
2023-04-07T18:32:21.140Z,67.70
2023-04-07T18:34:50.449Z,68.00
2023-04-07T18:37:19.900Z,68.40
2023-04-07T18:39:48.020Z,68.70
2023-04-07T18:42:16.028Z,68.80
2023-04-07T18:44:44.012Z,70.10
2023-04-07T18:47:12.495Z,69.70
2023-04-07T18:49:40.580Z,70.30
2023-04-07T18:52:08.604Z,70.50
2023-04-07T18:54:38.046Z,70.80
2023-04-07T18:57:05.983Z,72.30
2023-04-07T18:59:33.868Z,71.90
2023-04-07T19:02:02.433Z,72.90
2023-04-07T19:04:30.348Z,73.30
2023-04-07T19:06:58.991Z,73.60
2023-04-07T19:09:26.923Z,74.20
2023-04-07T19:11:56.924Z,74.40
2023-04-07T19:14:24.867Z,74.60
2023-04-07T19:16:53.196Z,75.00
2023-04-07T19:19:21.350Z,75.30
2023-04-07T19:21:49.218Z,75.30
2023-04-07T19:24:16.985Z,75.40
2023-04-07T19:26:44.849Z,75.60
2023-04-07T19:29:14.012Z,75.80
2023-04-07T19:31:41.757Z,76.00
2023-04-07T19:34:09.618Z,76.10
2023-04-07T19:36:37.396Z,76.30
2023-04-07T19:39:05.344Z,76.60
2023-04-07T19:41:33.572Z,76.70
2023-04-07T19:44:01.601Z,76.60
2023-04-07T19:46:33.133Z,76.90
2023-04-07T19:49:01.121Z,76.90
2023-04-07T19:51:29.082Z,77.20
2023-04-07T19:53:56.927Z,77.50
2023-04-07T19:56:24.963Z,77.50
2023-04-07T19:58:53.014Z,78.40
2023-04-07T20:01:20.961Z,77.70
2023-04-07T20:03:50.425Z,78.00
2023-04-07T20:06:19.191Z,77.90
2023-04-07T20:08:48.411Z,78.00
2023-04-07T20:11:16.537Z,78.30
2023-04-07T20:13:44.435Z,78.20
2023-04-07T20:16:13.963Z,78.30
2023-04-07T20:18:42.000Z,78.30
2023-04-07T20:21:11.272Z,78.50
2023-04-07T20:23:39.074Z,78.50
2023-04-07T20:26:08.975Z,78.60
2023-04-07T20:28:38.037Z,78.70
2023-04-07T20:31:06.107Z,78.90
2023-04-07T20:33:33.964Z,78.90
2023-04-07T20:36:01.987Z,79.00
2023-04-07T20:38:31.185Z,79.10
2023-04-07T20:40:59.072Z,79.20
2023-04-07T20:43:26.983Z,79.40
2023-04-07T20:45:54.911Z,79.40
2023-04-07T20:48:23.891Z,79.60
2023-04-07T20:50:52.601Z,79.60
2023-04-07T20:53:20.663Z,79.80
2023-04-07T20:55:50.163Z,79.80
2023-04-07T20:58:18.582Z,80.00
2023-04-07T21:00:46.629Z,80.00
2023-04-07T21:03:15.107Z,80.20
2023-04-07T21:05:43.415Z,80.20
2023-04-07T21:08:13.237Z,80.30
2023-04-07T21:10:42.315Z,80.50
2023-04-07T21:13:11.557Z,80.50
2023-04-07T21:15:39.513Z,80.50
2023-04-07T21:18:07.471Z,80.70
2023-04-07T21:20:37.748Z,80.70
2023-04-07T21:23:05.878Z,80.80
2023-04-07T21:25:33.673Z,80.80
2023-04-07T21:28:01.573Z,80.90
2023-04-07T21:30:31.144Z,81.00
2023-04-07T21:32:58.990Z,81.20
2023-04-07T21:35:29.142Z,81.20
2023-04-07T21:37:57.095Z,81.40
2023-04-07T21:40:24.892Z,81.40
2023-04-07T21:42:52.888Z,81.40
2023-04-07T21:45:21.054Z,81.60
2023-04-07T21:47:50.281Z,81.60
2023-04-07T21:50:18.897Z,81.70
2023-04-07T21:52:50.501Z,81.80
2023-04-07T21:55:18.644Z,81.90
2023-04-07T21:57:46.602Z,82.00
2023-04-07T22:00:16.388Z,82.10
2023-04-07T22:02:45.223Z,82.20
2023-04-07T22:05:15.960Z,82.30
2023-04-07T22:07:45.401Z,82.30
2023-04-07T22:10:13.422Z,82.50
2023-04-07T22:12:41.680Z,82.60
2023-04-07T22:15:12.256Z,82.60
2023-04-07T22:17:41.256Z,82.80
2023-04-07T22:20:11.576Z,82.90
2023-04-07T22:22:41.061Z,83.00
2023-04-07T22:25:09.713Z,83.00
2023-04-07T22:27:37.556Z,83.20
2023-04-07T22:30:09.683Z,83.20
2023-04-07T22:32:37.920Z,83.20
2023-04-07T22:35:06.649Z,83.40
2023-04-07T22:37:34.582Z,83.50
2023-04-07T22:40:03.955Z,83.50
2023-04-07T22:42:31.762Z,83.50
2023-04-07T22:44:59.649Z,83.70
2023-04-07T22:47:27.688Z,83.90
2023-04-07T22:49:56.399Z,84.00
2023-04-07T22:52:24.258Z,84.00
2023-04-07T22:54:52.063Z,84.20
2023-04-07T22:57:21.546Z,84.10
2023-04-07T22:59:49.410Z,84.20
2023-04-07T23:02:17.421Z,84.30
2023-04-07T23:04:45.348Z,84.30
2023-04-07T23:07:13.224Z,84.30
2023-04-07T23:09:41.220Z,84.60
2023-04-07T23:12:09.972Z,84.60
2023-04-07T23:14:39.168Z,84.60
2023-04-07T23:17:07.685Z,84.70
2023-04-07T23:19:35.532Z,84.60
2023-04-07T23:22:03.345Z,84.60
2023-04-07T23:24:31.156Z,84.90
2023-04-07T23:26:59.079Z,84.70
2023-04-07T23:29:27.098Z,84.80
2023-04-07T23:31:56.556Z,84.90
2023-04-07T23:34:24.434Z,85.00
2023-04-07T23:36:52.250Z,85.00
2023-04-07T23:39:20.081Z,85.10
2023-04-07T23:41:48.157Z,85.10
2023-04-07T23:44:16.041Z,85.00
2023-04-07T23:46:43.808Z,85.10
2023-04-07T23:49:12.985Z,85.30
2023-04-07T23:51:40.913Z,85.30
2023-04-07T23:54:08.781Z,85.40
2023-04-07T23:56:36.592Z,85.40
2023-04-07T23:59:04.492Z,85.50
